Time;durP1;ratioP1;P1;durP2;ratioP2;P2;SDS_P1;SDS_P2;PMS_P1;PMS_P2;Temp;Humidity;BMP_temperature;BMP_pressure;BME280_temperature;BME280_humidity;BME280_pressure;Samples;Min_cycle;Max_cycle;Signal;HPM_P1;HPM_P2
2023/10/11 00:02:59;;;;;;;9.75;4.13;;;;;;;;;;5011020;28;20060;-69
2023/10/11 00:05:24;;;;;;;13.27;4.40;;;;;;;;;;5010693;28;20090;-69
2023/10/11 00:07:54;;;;;;;11.80;4.40;;;;;;;;;;5010908;28;20026;-69
2023/10/11 00:10:22;;;;;;;10.13;4.07;;;;;;;;;;4994887;28;20042;-69
2023/10/11 00:12:50;;;;;;;10.65;4.45;;;;;;;;;;5010890;28;20022;-68
2023/10/11 00:15:15;;;;;;;7.50;4.25;;;;;;;;;;5004951;28;20486;-68
2023/10/11 00:17:41;;;;;;;10.27;4.07;;;;;;;;;;5001556;28;20050;-67
2023/10/11 00:20:16;;;;;;;10.70;4.18;;;;;;;;;;5004487;28;20479;-69
2023/10/11 00:22:41;;;;;;;15.93;4.30;;;;;;;;;;5004550;28;20026;-68
2023/10/11 00:25:07;;;;;;;10.70;4.43;;;;;;;;;;4991761;28;20042;-68
2023/10/11 00:27:32;;;;;;;11.98;4.22;;;;;;;;;;5003124;28;20034;-70
2023/10/11 00:29:57;;;;;;;10.38;4.38;;;;;;;;;;5008515;28;20471;-67
2023/10/11 00:32:23;;;;;;;10.85;4.70;;;;;;;;;;5000017;28;20072;-69
2023/10/11 00:34:49;;;;;;;14.43;4.28;;;;;;;;;;4995836;28;20018;-69
2023/10/11 00:37:14;;;;;;;12.02;4.30;;;;;;;;;;5002369;28;20464;-68
2023/10/11 00:39:40;;;;;;;12.27;4.47;;;;;;;;;;4999960;28;20076;-69
2023/10/11 00:42:06;;;;;;;11.20;4.90;;;;;;;;;;5003683;28;20091;-69
2023/10/11 00:44:32;;;;;;;11.52;4.50;;;;;;;;;;5003800;28;20038;-68
2023/10/11 00:47:00;;;;;;;11.93;4.50;;;;;;;;;;5010094;28;20075;-68
2023/10/11 00:49:35;;;;;;;9.43;4.13;;;;;;;;;;5012079;28;20037;-68
2023/10/11 00:52:04;;;;;;;10.20;4.55;;;;;;;;;;5010236;28;20484;-68
2023/10/11 00:54:30;;;;;;;12.65;4.65;;;;;;;;;;5013951;28;20025;-69
2023/10/11 00:56:55;;;;;;;10.48;4.18;;;;;;;;;;5013743;28;20384;-68
2023/10/11 00:59:21;;;;;;;12.07;4.30;;;;;;;;;;5013892;28;20037;-69
2023/10/11 01:02:06;;;;;;;11.10;4.57;;;;;;;;;;5007846;28;20483;-67
2023/10/11 01:04:33;;;;;;;10.10;4.43;;;;;;;;;;5008242;28;20486;-66
2023/10/11 01:06:58;;;;;;;10.55;4.43;;;;;;;;;;5013586;28;20026;-68
2023/10/11 01:09:28;;;;;;;11.63;4.70;;;;;;;;;;5013625;28;20037;-62
2023/10/11 01:11:53;;;;;;;10.30;4.35;;;;;;;;;;5002859;28;20064;-63
2023/10/11 01:14:19;;;;;;;9.90;4.40;;;;;;;;;;5008622;28;20026;-62
2023/10/11 01:16:44;;;;;;;15.05;4.80;;;;;;;;;;4996873;28;20057;-63
2023/10/11 01:19:15;;;;;;;10.57;4.60;;;;;;;;;;5000494;28;20109;-60
2023/10/11 01:21:45;;;;;;;12.15;4.68;;;;;;;;;;5011610;28;20581;-59
2023/10/11 01:24:10;;;;;;;9.65;4.20;;;;;;;;;;4994657;28;20365;-60
2023/10/11 01:26:36;;;;;;;12.55;4.40;;;;;;;;;;5005296;28;20037;-62
2023/10/11 01:29:01;;;;;;;10.38;4.78;;;;;;;;;;5013287;28;20428;-61
2023/10/11 01:31:32;;;;;;;11.77;5.10;;;;;;;;;;5010845;28;20459;-61
2023/10/11 01:33:58;;;;;;;14.38;4.97;;;;;;;;;;4994130;28;20396;-61
2023/10/11 01:36:23;;;;;;;13.10;5.13;;;;;;;;;;4993537;28;20030;-63
2023/10/11 01:38:48;;;;;;;12.73;5.40;;;;;;;;;;4997026;28;20030;-62
2023/10/11 01:41:14;;;;;;;12.00;4.93;;;;;;;;;;4997344;28;20365;-62
2023/10/11 01:43:39;;;;;;;13.35;4.93;;;;;;;;;;4997028;28;20026;-61
2023/10/11 01:46:05;;;;;;;12.35;4.50;;;;;;;;;;4997083;28;20021;-60
2023/10/11 01:48:30;;;;;;;13.65;5.50;;;;;;;;;;5012389;28;20091;-61
2023/10/11 01:51:06;;;;;;;14.02;5.28;;;;;;;;;;5010543;28;20426;-62
2023/10/11 01:53:31;;;;;;;13.68;5.25;;;;;;;;;;5004623;28;20378;-60
2023/10/11 01:55:56;;;;;;;11.55;5.03;;;;;;;;;;4993320;28;20022;-60
2023/10/11 01:58:22;;;;;;;10.00;5.10;;;;;;;;;;5010488;28;20025;-61
2023/10/11 02:00:49;;;;;;;9.68;4.82;;;;;;;;;;5010957;28;20024;-61
2023/10/11 02:03:14;;;;;;;11.70;5.50;;;;;;;;;;4997252;28;20071;-61
2023/10/11 02:05:39;;;;;;;12.10;5.80;;;;;;;;;;4993136;28;20027;-61
2023/10/11 02:08:06;;;;;;;14.77;5.38;;;;;;;;;;4996921;28;20034;-61
2023/10/11 02:10:36;;;;;;;15.75;5.93;;;;;;;;;;4998615;28;20045;-63
2023/10/11 02:13:03;;;;;;;10.80;5.45;;;;;;;;;;5008853;28;20025;-62
2023/10/11 02:15:29;;;;;;;12.43;6.35;;;;;;;;;;5010562;28;20030;-61
2023/10/11 02:17:54;;;;;;;13.13;6.03;;;;;;;;;;5008251;28;20054;-63
2023/10/11 02:20:22;;;;;;;13.02;5.35;;;;;;;;;;4998287;28;20117;-69
2023/10/11 02:22:51;;;;;;;14.00;5.55;;;;;;;;;;5008476;28;20026;-69
2023/10/11 02:25:24;;;;;;;12.13;5.32;;;;;;;;;;5000630;28;20026;-68
2023/10/11 02:27:50;;;;;;;13.23;5.60;;;;;;;;;;5012327;28;20545;-69
2023/10/11 02:30:20;;;;;;;12.98;5.63;;;;;;;;;;5012222;28;20034;-69
2023/10/11 02:32:46;;;;;;;12.87;5.50;;;;;;;;;;5011405;28;20018;-67
2023/10/11 02:35:13;;;;;;;14.73;5.70;;;;;;;;;;4992843;28;20261;-67
2023/10/11 02:37:39;;;;;;;14.80;5.20;;;;;;;;;;4994657;28;20030;-68
2023/10/11 02:40:10;;;;;;;12.95;5.72;;;;;;;;;;5011850;28;20034;-69
2023/10/11 02:42:36;;;;;;;;;;;;;;;;;;5012279;28;20037;-68
2023/10/11 02:45:06;;;;;;;11.02;5.30;;;;;;;;;;5004765;28;19910;-69
2023/10/11 02:47:31;;;;;;;14.57;5.45;;;;;;;;;;4996554;28;20392;-68
2023/10/11 02:50:03;;;;;;;12.15;5.57;;;;;;;;;;5001388;28;20030;-69
2023/10/11 02:52:39;;;;;;;14.50;5.85;;;;;;;;;;5011653;28;20078;-69
2023/10/11 02:55:21;;;;;;;11.63;5.15;;;;;;;;;;5011923;28;20033;-68
2023/10/11 02:57:47;;;;;;;13.60;5.68;;;;;;;;;;5000279;28;20113;-69
2023/10/11 03:00:21;;;;;;;15.32;6.00;;;;;;;;;;4992532;28;20061;-68
2023/10/11 03:02:46;;;;;;;11.05;5.60;;;;;;;;;;4992003;28;20087;-68
2023/10/11 03:05:12;;;;;;;14.30;6.00;;;;;;;;;;4992109;28;20022;-68
2023/10/11 03:07:39;;;;;;;13.75;5.72;;;;;;;;;;5003799;28;20026;-70
2023/10/11 03:10:13;;;;;;;12.70;5.28;;;;;;;;;;5004559;28;20167;-68
2023/10/11 03:12:39;;;;;;;13.70;5.95;;;;;;;;;;5005549;28;20026;-69
2023/10/11 03:15:09;;;;;;;14.13;6.10;;;;;;;;;;5007173;28;20049;-68
2023/10/11 03:17:41;;;;;;;9.87;5.40;;;;;;;;;;4992433;28;20077;-68
2023/10/11 03:20:08;;;;;;;;;;;;;;;;;;5004536;28;20531;-69
2023/10/11 03:22:35;;;;;;;13.73;5.45;;;;;;;;;;5011492;28;19940;-68
2023/10/11 03:25:01;;;;;;;13.18;5.50;;;;;;;;;;5011086;28;20034;-69
2023/10/11 03:27:27;;;;;;;16.52;5.82;;;;;;;;;;5011221;28;20036;-68
2023/10/11 03:29:53;;;;;;;12.85;5.20;;;;;;;;;;4998941;28;20109;-69
2023/10/11 03:32:18;;;;;;;13.05;4.82;;;;;;;;;;5011597;28;20022;-67
2023/10/11 03:34:43;;;;;;;12.65;5.57;;;;;;;;;;5011022;28;20044;-68
2023/10/11 03:37:17;;;;;;;12.90;5.50;;;;;;;;;;5001207;28;20026;-68
2023/10/11 03:39:44;;;;;;;12.45;5.43;;;;;;;;;;5010839;28;20030;-68
2023/10/11 03:44:45;;;;;;;12.57;5.57;;;;;;;;;;5009732;28;20398;-68
2023/10/11 03:47:22;;;;;;;9.82;4.97;;;;;;;;;;5011189;28;20391;-68
2023/10/11 03:49:51;;;;;;;12.13;5.32;;;;;;;;;;5009364;28;20443;-67
2023/10/11 03:52:22;;;;;;;13.23;5.18;;;;;;;;;;5010765;28;20033;-68
2023/10/11 03:54:47;;;;;;;11.00;4.75;;;;;;;;;;5000174;28;20384;-68
2023/10/11 03:57:16;;;;;;;11.25;4.95;;;;;;;;;;5006882;28;20025;-68
2023/10/11 03:59:48;;;;;;;12.57;4.82;;;;;;;;;;5007721;28;20037;-68
2023/10/11 04:02:13;;;;;;;11.20;4.95;;;;;;;;;;4999750;28;20097;-68
2023/10/11 04:04:42;;;;;;;9.68;5.05;;;;;;;;;;4993322;28;20054;-67
2023/10/11 04:07:11;;;;;;;10.95;4.80;;;;;;;;;;5001022;28;20034;-67
2023/10/11 04:09:37;;;;;;;14.68;5.43;;;;;;;;;;5010399;28;20053;-67
2023/10/11 04:12:10;;;;;;;13.52;5.55;;;;;;;;;;4998075;28;20495;-67
2023/10/11 04:14:39;;;;;;;14.23;4.97;;;;;;;;;;5010572;28;20029;-70
2023/10/11 04:17:31;;;;;;;12.35;5.35;;;;;;;;;;5006745;28;20046;-68
2023/10/11 04:20:00;;;;;;;12.43;5.20;;;;;;;;;;5004326;28;20038;-68
2023/10/11 04:22:31;;;;;;;13.77;4.90;;;;;;;;;;5009595;28;20514;-68
2023/10/11 04:24:57;;;;;;;11.30;4.82;;;;;;;;;;5010728;28;20502;-68
2023/10/11 04:29:50;;;;;;;8.82;5.03;;;;;;;;;;5001646;28;20026;-68
2023/10/11 04:32:19;;;;;;;18.30;5.60;;;;;;;;;;5011702;28;20025;-69
2023/10/11 04:34:55;;;;;;;13.23;5.50;;;;;;;;;;5010492;28;20021;-68
2023/10/11 04:37:27;;;;;;;11.18;5.25;;;;;;;;;;5010585;28;20026;-68
2023/10/11 04:39:57;;;;;;;9.90;5.22;;;;;;;;;;5010378;28;20487;-67
2023/10/11 04:42:28;;;;;;;13.50;5.30;;;;;;;;;;5009970;28;20033;-61
2023/10/11 04:44:57;;;;;;;10.87;5.23;;;;;;;;;;5010160;28;20025;-61
2023/10/11 04:47:23;;;;;;;13.18;6.00;;;;;;;;;;5008690;28;20476;-61
2023/10/11 04:49:52;;;;;;;12.65;5.70;;;;;;;;;;5003009;28;20030;-62
2023/10/11 04:52:22;;;;;;;13.48;6.18;;;;;;;;;;5006775;28;20475;-60
2023/10/11 04:54:54;;;;;;;16.35;6.55;;;;;;;;;;5010166;28;20353;-59
2023/10/11 04:57:35;;;;;;;17.60;6.07;;;;;;;;;;5010066;28;20025;-58
2023/10/11 05:00:00;;;;;;;14.43;6.53;;;;;;;;;;5008681;28;20518;-61
2023/10/11 05:02:32;;;;;;;16.60;5.72;;;;;;;;;;5006030;28;20018;-62
2023/10/11 05:04:59;;;;;;;14.70;5.72;;;;;;;;;;5002324;28;20099;-59
2023/10/11 05:07:25;;;;;;;14.82;6.13;;;;;;;;;;4999010;28;20577;-59
2023/10/11 05:09:59;;;;;;;14.95;5.53;;;;;;;;;;5007672;28;20106;-61
2023/10/11 05:12:24;;;;;;;11.82;5.97;;;;;;;;;;4997728;28;20105;-61
2023/10/11 05:19:44;;;;;;;13.63;5.80;;;;;;;;;;5007735;28;20022;-61
2023/10/11 05:22:16;;;;;;;14.32;6.32;;;;;;;;;;5007724;28;20041;-61
2023/10/11 05:25:12;;;;;;;;;;;;;;;;;;5008150;28;20013;-63
2023/10/11 05:30:16;;;;;;;15.02;5.93;;;;;;;;;;5007867;28;20026;-61
2023/10/11 05:32:49;;;;;;;13.65;5.80;;;;;;;;;;5007436;28;20106;-59
2023/10/11 05:51:29;;;;;;;14.95;5.45;;;;;;;;;;4993632;28;20510;-62
2023/10/11 05:53:54;;;;;;;18.92;5.43;;;;;;;;;;4993291;28;20026;-61
2023/10/11 05:56:22;;;;;;;10.93;4.82;;;;;;;;;;4993127;28;20018;-61
2023/10/11 05:58:52;;;;;;;12.48;4.82;;;;;;;;;;4992997;28;20079;-63
2023/10/11 06:01:19;;;;;;;11.70;5.38;;;;;;;;;;4993242;28;20022;-61
2023/10/11 06:03:44;;;;;;;13.13;5.10;;;;;;;;;;4993340;28;20038;-62
2023/10/11 06:06:32;;;;;;;13.27;4.65;;;;;;;;;;4997012;28;20074;-62
2023/10/11 06:08:57;;;;;;;13.30;5.20;;;;;;;;;;4995368;28;20019;-62
2023/10/11 06:11:28;;;;;;;13.27;5.35;;;;;;;;;;4993010;28;20022;-61
2023/10/11 06:13:54;;;;;;;14.38;5.00;;;;;;;;;;4993135;28;20030;-62
2023/10/11 06:16:22;;;;;;;12.27;4.90;;;;;;;;;;4992921;28;20400;-63
2023/10/11 06:18:57;;;;;;;11.25;5.05;;;;;;;;;;4993044;28;20091;-60
2023/10/11 06:21:32;;;;;;;12.25;4.93;;;;;;;;;;4993060;28;20410;-62
2023/10/11 06:23:58;;;;;;;13.88;5.13;;;;;;;;;;4992731;28;20479;-61
2023/10/11 06:26:52;;;;;;;15.88;5.32;;;;;;;;;;4992739;28;20102;-62
2023/10/11 06:29:22;;;;;;;13.48;4.82;;;;;;;;;;4992557;28;20031;-63
2023/10/11 06:31:48;;;;;;;11.52;4.93;;;;;;;;;;4992548;28;20023;-62
2023/10/11 06:34:17;;;;;;;11.05;4.10;;;;;;;;;;4993697;28;20098;-61
2023/10/11 06:36:48;;;;;;;10.70;4.55;;;;;;;;;;5012033;28;20038;-62
2023/10/11 06:39:33;;;;;;;10.82;4.63;;;;;;;;;;5012387;28;20030;-63
2023/10/11 06:41:58;;;;;;;9.82;4.80;;;;;;;;;;5011348;28;20110;-60
2023/10/11 06:44:24;;;;;;;10.70;4.25;;;;;;;;;;5012379;28;20038;-59
2023/10/11 06:46:50;;;;;;;11.85;4.38;;;;;;;;;;5010877;28;20429;-62
2023/10/11 06:49:16;;;;;;;11.20;4.70;;;;;;;;;;5012186;28;20352;-59
2023/10/11 06:51:41;;;;;;;14.23;5.38;;;;;;;;;;5011842;28;20021;-59
2023/10/11 06:54:07;;;;;;;12.43;4.68;;;;;;;;;;5012225;28;20100;-59
2023/10/11 06:56:32;;;;;;;10.43;4.72;;;;;;;;;;5012145;28;20049;-62
2023/10/11 06:59:00;;;;;;;10.38;4.45;;;;;;;;;;5011670;28;20420;-61
2023/10/11 07:01:30;;;;;;;9.50;4.10;;;;;;;;;;5012216;28;20479;-61
2023/10/11 07:03:57;;;;;;;14.00;4.80;;;;;;;;;;5011665;28;20479;-59
2023/10/11 07:06:22;;;;;;;14.88;4.68;;;;;;;;;;5006227;28;20015;-57
2023/10/11 07:08:50;;;;;;;12.02;4.45;;;;;;;;;;5009259;28;20490;-59
2023/10/11 07:11:41;;;;;;;10.63;4.45;;;;;;;;;;5011571;28;20030;-59
2023/10/11 07:14:14;;;;;;;11.15;4.35;;;;;;;;;;5011871;28;20022;-59
2023/10/11 07:16:41;;;;;;;14.43;5.28;;;;;;;;;;5011607;28;20171;-61
2023/10/11 07:19:09;;;;;;;10.90;4.57;;;;;;;;;;5011507;28;20029;-59
2023/10/11 07:21:51;;;;;;;12.50;4.80;;;;;;;;;;5011705;28;20490;-61
2023/10/11 07:24:19;;;;;;;13.38;5.25;;;;;;;;;;5011428;28;20053;-58
2023/10/11 07:29:16;;;;;;;9.70;4.65;;;;;;;;;;5011630;28;20109;-58
2023/10/11 07:31:51;;;;;;;12.18;4.85;;;;;;;;;;5011605;28;20056;-58
2023/10/11 07:34:20;;;;;;;12.57;4.97;;;;;;;;;;5011292;28;20110;-61
2023/10/11 07:36:48;;;;;;;11.38;4.68;;;;;;;;;;5011407;28;20475;-58
2023/10/11 07:39:15;;;;;;;13.18;5.40;;;;;;;;;;5011161;28;20108;-59
2023/10/11 07:41:43;;;;;;;11.45;4.80;;;;;;;;;;5011145;28;20104;-61
2023/10/11 07:44:09;;;;;;;11.10;5.50;;;;;;;;;;5011167;28;20033;-59
2023/10/11 07:46:37;;;;;;;11.13;5.30;;;;;;;;;;5001998;28;20123;-60
2023/10/11 07:49:02;;;;;;;12.68;5.38;;;;;;;;;;4991702;28;20026;-58
2023/10/11 07:51:29;;;;;;;14.13;6.22;;;;;;;;;;4991444;28;20033;-59
2023/10/11 07:53:55;;;;;;;12.45;5.90;;;;;;;;;;4991416;28;20030;-58
2023/10/11 07:56:20;;;;;;;12.05;5.32;;;;;;;;;;4991371;28;20068;-59
2023/10/11 07:58:46;;;;;;;14.57;5.15;;;;;;;;;;4990986;28;20033;-59
2023/10/11 08:01:16;;;;;;;11.10;5.28;;;;;;;;;;4991636;28;20105;-58
2023/10/11 08:03:44;;;;;;;13.93;5.30;;;;;;;;;;4991674;28;20387;-64
2023/10/11 08:06:12;;;;;;;13.85;4.85;;;;;;;;;;4995339;28;20421;-64
2023/10/11 08:08:37;;;;;;;10.75;4.38;;;;;;;;;;5002272;28;20102;-64
2023/10/11 08:11:11;;;;;;;15.98;5.28;;;;;;;;;;4991182;28;20089;-63
2023/10/11 08:13:36;;;;;;;11.80;5.43;;;;;;;;;;4991121;28;20025;-63
2023/10/11 08:16:05;;;;;;;13.18;5.10;;;;;;;;;;4991020;28;20023;-64
2023/10/11 08:18:32;;;;;;;12.88;5.18;;;;;;;;;;4991372;28;20122;-63
2023/10/11 08:20:57;;;;;;;10.40;5.47;;;;;;;;;;4990992;28;20028;-64
2023/10/11 08:23:29;;;;;;;10.93;5.00;;;;;;;;;;4991102;28;20105;-64
2023/10/11 08:25:54;;;;;;;;;;;;;;;;;;4991677;28;20510;-64
2023/10/11 08:28:28;;;;;;;17.00;5.55;;;;;;;;;;4991169;28;20396;-65
2023/10/11 08:30:56;;;;;;;14.38;5.15;;;;;;;;;;4990930;28;20646;-65
2023/10/11 08:33:22;;;;;;;15.88;5.75;;;;;;;;;;4997029;28;20475;-67
2023/10/11 08:35:52;;;;;;;12.48;5.15;;;;;;;;;;5010205;28;20022;-66
2023/10/11 08:38:18;;;;;;;10.98;5.60;;;;;;;;;;5010607;28;20488;-65
2023/10/11 08:40:44;;;;;;;12.35;5.63;;;;;;;;;;5010268;28;20018;-65
2023/10/11 08:43:15;;;;;;;13.25;5.57;;;;;;;;;;5010266;28;20079;-67
2023/10/11 08:45:41;;;;;;;12.57;5.47;;;;;;;;;;5010326;28;20017;-65
2023/10/11 08:48:08;;;;;;;13.95;5.57;;;;;;;;;;5010177;28;20113;-66
2023/10/11 08:50:37;;;;;;;15.73;5.75;;;;;;;;;;5010162;28;20041;-65
2023/10/11 08:53:07;;;;;;;15.55;5.88;;;;;;;;;;5009756;28;20032;-67
2023/10/11 08:55:35;;;;;;;10.55;5.65;;;;;;;;;;5010024;28;20488;-66
2023/10/11 08:58:00;;;;;;;13.13;6.32;;;;;;;;;;5010406;28;20029;-65
2023/10/11 09:00:29;;;;;;;12.65;5.93;;;;;;;;;;5010097;28;20030;-66
2023/10/11 09:02:58;;;;;;;13.65;6.57;;;;;;;;;;5010305;28;20526;-65
2023/10/11 09:05:42;;;;;;;12.52;6.70;;;;;;;;;;5010074;28;20058;-67
2023/10/11 09:08:18;;;;;;;15.20;6.53;;;;;;;;;;5003477;28;20533;-68
2023/10/11 09:10:49;;;;;;;14.10;6.53;;;;;;;;;;5013089;28;20062;-67
2023/10/11 09:13:23;;;;;;;12.18;5.95;;;;;;;;;;5013866;28;20018;-65
2023/10/11 09:15:53;;;;;;;12.65;6.10;;;;;;;;;;5013367;28;20018;-66
2023/10/11 09:18:18;;;;;;;12.65;6.03;;;;;;;;;;5013132;28;20042;-66
2023/10/11 09:20:50;;;;;;;15.73;6.63;;;;;;;;;;5013349;28;20014;-66
2023/10/11 09:23:21;;;;;;;12.88;6.25;;;;;;;;;;5013337;28;20102;-66
2023/10/11 09:25:58;;;;;;;15.73;6.85;;;;;;;;;;5013210;28;20029;-66
2023/10/11 09:28:27;;;;;;;14.25;6.68;;;;;;;;;;5013175;28;20026;-68
2023/10/11 09:31:11;;;;;;;15.35;6.38;;;;;;;;;;5013127;28;20030;-66
2023/10/11 09:33:40;;;;;;;14.88;6.05;;;;;;;;;;5013428;28;20026;-65
2023/10/11 09:36:07;;;;;;;17.45;7.03;;;;;;;;;;5013302;28;20451;-66
2023/10/11 09:38:39;;;;;;;14.98;6.53;;;;;;;;;;5013325;28;20150;-66
2023/10/11 09:41:07;;;;;;;14.02;5.95;;;;;;;;;;5013328;28;20471;-66
2023/10/11 09:43:36;;;;;;;13.48;6.57;;;;;;;;;;5013227;28;20021;-66
2023/10/11 09:46:03;;;;;;;12.82;6.50;;;;;;;;;;5012833;28;20105;-65
2023/10/11 09:48:29;;;;;;;14.30;6.80;;;;;;;;;;5001917;28;20472;-65
2023/10/11 09:50:57;;;;;;;14.50;6.57;;;;;;;;;;4993293;28;20118;-65
2023/10/11 09:53:25;;;;;;;12.25;5.70;;;;;;;;;;4993297;28;20023;-66
2023/10/11 09:55:55;;;;;;;16.15;6.90;;;;;;;;;;4993459;28;20490;-65
2023/10/11 09:58:20;;;;;;;15.68;6.25;;;;;;;;;;4993111;28;20019;-68
2023/10/11 10:00:50;;;;;;;12.25;6.40;;;;;;;;;;4993248;28;20044;-67
2023/10/11 10:03:16;;;;;;;15.60;6.18;;;;;;;;;;4992939;28;20019;-67
2023/10/11 10:06:07;;;;;;;16.98;6.47;;;;;;;;;;4993148;28;20034;-65
2023/10/11 10:08:33;;;;;;;15.57;7.10;;;;;;;;;;5008713;28;20113;-65
2023/10/11 10:10:58;;;;;;;14.80;6.60;;;;;;;;;;5012478;28;20101;-67
2023/10/11 10:13:26;;;;;;;13.82;7.20;;;;;;;;;;5012739;28;20026;-66
2023/10/11 10:15:52;;;;;;;14.32;7.47;;;;;;;;;;5012342;28;20018;-67
2023/10/11 10:18:19;;;;;;;12.52;5.32;;;;;;;;;;5012142;28;20038;-66
2023/10/11 10:20:45;;;;;;;14.65;6.85;;;;;;;;;;5010886;28;20148;-65
2023/10/11 10:23:16;;;;;;;16.60;7.00;;;;;;;;;;5012724;28;20048;-65
2023/10/11 10:25:46;;;;;;;13.13;6.70;;;;;;;;;;5012469;28;20022;-66
2023/10/11 10:28:30;;;;;;;15.85;7.30;;;;;;;;;;5012252;28;20021;-65
2023/10/11 10:31:12;;;;;;;16.08;6.70;;;;;;;;;;5012274;28;20040;-65
2023/10/11 10:33:41;;;;;;;15.48;7.28;;;;;;;;;;5012189;28;20391;-67
2023/10/11 10:36:22;;;;;;;15.80;8.10;;;;;;;;;;5012333;28;20472;-66
2023/10/11 10:42:12;;;;;;;17.02;8.40;;;;;;;;;;5072521;28;20099;-67
2023/10/11 10:44:49;;;;;;;15.38;8.02;;;;;;;;;;5072523;28;20088;-66
2023/10/11 10:47:20;;;;;;;18.73;8.48;;;;;;;;;;5072476;28;20033;-65
2023/10/11 10:49:47;;;;;;;18.52;9.02;;;;;;;;;;5072303;28;20498;-66
2023/10/11 10:52:15;;;;;;;14.30;7.95;;;;;;;;;;5072409;28;20118;-65
2023/10/11 10:54:52;;;;;;;17.58;9.02;;;;;;;;;;5072386;28;20032;-65
2023/10/11 10:57:22;;;;;;;15.88;7.50;;;;;;;;;;5071998;28;20056;-66
2023/10/11 10:59:50;;;;;;;16.48;8.88;;;;;;;;;;5072217;28;20134;-65
2023/10/11 11:02:19;;;;;;;18.60;8.48;;;;;;;;;;5072221;28;20394;-67
2023/10/11 11:04:44;;;;;;;16.92;9.05;;;;;;;;;;5072095;28;20467;-66
2023/10/11 11:07:20;;;;;;;17.42;9.32;;;;;;;;;;5059767;28;20017;-66
2023/10/11 11:09:47;;;;;;;18.85;9.20;;;;;;;;;;5052020;28;20513;-66
2023/10/11 11:12:14;;;;;;;18.27;9.90;;;;;;;;;;5052252;28;20029;-66
2023/10/11 11:14:51;;;;;;;16.08;8.93;;;;;;;;;;5056226;28;20023;-66
2023/10/11 11:17:19;;;;;;;17.00;9.43;;;;;;;;;;5071642;28;20036;-67
2023/10/11 11:20:00;;;;;;;16.73;9.10;;;;;;;;;;5091528;28;20028;-65
2023/10/11 11:22:37;;;;;;;14.95;8.40;;;;;;;;;;5094450;28;20551;-66
2023/10/11 11:25:15;;;;;;;16.65;9.02;;;;;;;;;;5094452;28;20024;-66
2023/10/11 11:27:41;;;;;;;16.90;9.73;;;;;;;;;;5094508;28;20478;-66
2023/10/11 11:30:16;;;;;;;19.67;9.90;;;;;;;;;;5094419;28;20074;-66
2023/10/11 11:32:41;;;;;;;14.90;8.63;;;;;;;;;;5093943;28;20062;-66
2023/10/11 11:35:10;;;;;;;16.30;9.65;;;;;;;;;;5094193;28;20017;-61
2023/10/11 11:37:38;;;;;;;15.07;8.27;;;;;;;;;;5094198;28;20020;-61
2023/10/11 11:40:23;;;;;;;14.77;8.77;;;;;;;;;;5093737;28;20104;-58
2023/10/11 11:42:48;;;;;;;18.77;9.40;;;;;;;;;;5093635;28;20024;-59
2023/10/11 11:45:14;;;;;;;18.48;8.77;;;;;;;;;;5092574;28;20035;-59
2023/10/11 11:47:40;;;;;;;19.35;8.95;;;;;;;;;;5093794;28;20482;-61
2023/10/11 11:50:18;;;;;;;18.38;10.02;;;;;;;;;;5088621;28;20099;-61
2023/10/11 11:52:43;;;;;;;16.42;9.27;;;;;;;;;;5073703;28;20016;-61
2023/10/11 11:55:08;;;;;;;18.08;9.35;;;;;;;;;;5080554;28;20519;-59
2023/10/11 11:57:34;;;;;;;15.05;9.20;;;;;;;;;;5093704;28;20039;-61
2023/10/11 12:00:16;;;;;;;15.20;8.65;;;;;;;;;;5093910;28;20386;-59
2023/10/11 12:02:41;;;;;;;18.00;9.48;;;;;;;;;;5093392;28;20016;-61
2023/10/11 12:05:10;;;;;;;15.20;9.20;;;;;;;;;;5093553;28;20024;-61
2023/10/11 12:07:35;;;;;;;18.02;9.88;;;;;;;;;;5077520;28;20024;-62
2023/10/11 12:10:00;;;;;;;16.27;9.30;;;;;;;;;;5072848;28;20455;-60
2023/10/11 12:12:25;;;;;;;17.48;9.63;;;;;;;;;;5073454;28;20360;-60
2023/10/11 12:14:51;;;;;;;18.92;9.38;;;;;;;;;;5073353;28;20048;-61
2023/10/11 12:17:16;;;;;;;20.35;9.52;;;;;;;;;;5027273;28;20057;-60
2023/10/11 12:19:41;;;;;;;19.55;10.10;;;;;;;;;;4991232;28;20029;-61
2023/10/11 12:22:08;;;;;;;20.73;10.50;;;;;;;;;;4990941;28;20087;-62
2023/10/11 12:24:34;;;;;;;19.85;9.85;;;;;;;;;;4990906;28;20026;-63
2023/10/11 12:26:59;;;;;;;16.75;9.90;;;;;;;;;;4990842;28;20061;-60
2023/10/11 12:29:26;;;;;;;17.48;9.68;;;;;;;;;;4990908;28;20034;-61
2023/10/11 12:31:52;;;;;;;19.45;9.90;;;;;;;;;;4990753;28;20117;-62
2023/10/11 12:34:24;;;;;;;17.38;9.40;;;;;;;;;;4991074;28;20049;-58
2023/10/11 12:36:52;;;;;;;15.88;8.68;;;;;;;;;;4990718;28;20109;-60
2023/10/11 12:39:29;;;;;;;15.55;8.75;;;;;;;;;;5005176;28;20029;-60
2023/10/11 12:41:55;;;;;;;22.42;9.30;;;;;;;;;;5010487;28;20086;-59
2023/10/11 12:44:21;;;;;;;15.45;8.48;;;;;;;;;;5009661;28;20030;-67
2023/10/11 12:46:49;;;;;;;11.52;6.13;;;;;;;;;;5010443;28;20057;-65
2023/10/11 12:49:14;;;;;;;18.08;8.48;;;;;;;;;;5010029;28;20034;-66
2023/10/11 12:51:44;;;;;;;18.08;8.55;;;;;;;;;;5009946;28;20030;-66
2023/10/11 12:54:10;;;;;;;14.57;8.32;;;;;;;;;;5010504;28;20026;-67
2023/10/11 12:56:36;;;;;;;14.40;8.02;;;;;;;;;;5010271;28;20116;-66
2023/10/11 12:59:01;;;;;;;13.75;7.88;;;;;;;;;;5009949;28;20113;-65
2023/10/11 13:01:36;;;;;;;15.55;7.32;;;;;;;;;;5009789;28;20025;-66
2023/10/11 13:06:50;;;;;;;14.75;8.57;;;;;;;;;;5070265;28;20112;-67
2023/10/11 13:09:21;;;;;;;13.60;7.20;;;;;;;;;;5070164;28;20480;-67
2023/10/11 13:11:46;;;;;;;14.82;7.75;;;;;;;;;;5070274;28;20036;-67
2023/10/11 13:14:21;;;;;;;14.85;8.05;;;;;;;;;;5070281;28;20398;-64
2023/10/11 13:16:48;;;;;;;16.70;8.90;;;;;;;;;;5070130;28;20525;-66
2023/10/11 13:19:17;;;;;;;14.30;8.73;;;;;;;;;;5070291;28;20128;-66
2023/10/11 13:21:44;;;;;;;14.30;8.15;;;;;;;;;;5070182;28;20058;-66
2023/10/11 13:24:10;;;;;;;16.08;8.82;;;;;;;;;;5069844;28;20059;-67
2023/10/11 13:26:35;;;;;;;16.27;7.85;;;;;;;;;;5070254;28;20470;-66
2023/10/11 13:29:01;;;;;;;16.08;8.90;;;;;;;;;;5070147;28;20109;-66
2023/10/11 13:31:29;;;;;;;18.05;8.65;;;;;;;;;;5070251;28;20028;-66
2023/10/11 13:33:55;;;;;;;18.00;9.68;;;;;;;;;;5070108;28;20052;-66
2023/10/11 13:36:21;;;;;;;17.38;9.00;;;;;;;;;;5070089;28;20498;-68
2023/10/11 13:38:46;;;;;;;14.13;8.32;;;;;;;;;;5070117;28;20028;-65
2023/10/11 13:41:12;;;;;;;20.08;9.52;;;;;;;;;;5070230;28;20459;-67
2023/10/11 13:43:38;;;;;;;15.07;8.27;;;;;;;;;;5037591;28;20034;-67
2023/10/11 13:46:06;;;;;;;14.50;8.43;;;;;;;;;;4989913;28;20065;-66
2023/10/11 13:48:39;;;;;;;16.58;8.60;;;;;;;;;;4989813;28;20026;-67
2023/10/11 13:51:06;;;;;;;15.68;8.13;;;;;;;;;;5002166;28;20412;-67
2023/10/11 13:53:40;;;;;;;16.52;8.45;;;;;;;;;;5009430;28;20030;-66
2023/10/11 13:56:10;;;;;;;12.88;7.30;;;;;;;;;;5011502;28;20035;-66
2023/10/11 13:58:36;;;;;;;21.90;9.15;;;;;;;;;;5012777;28;20018;-65
2023/10/11 14:01:02;;;;;;;17.75;8.50;;;;;;;;;;5012950;28;20018;-67
2023/10/11 14:03:39;;;;;;;14.65;8.38;;;;;;;;;;5012830;28;20533;-65
2023/10/11 14:06:31;;;;;;;15.55;7.70;;;;;;;;;;5007376;28;20311;-66
2023/10/11 14:08:57;;;;;;;20.83;8.00;;;;;;;;;;4991884;28;20034;-67
2023/10/11 14:11:23;;;;;;;17.23;7.75;;;;;;;;;;4992945;28;20072;-66
2023/10/11 14:13:49;;;;;;;17.05;7.20;;;;;;;;;;4992876;28;20026;-66
2023/10/11 14:16:16;;;;;;;14.98;8.55;;;;;;;;;;4992465;28;20026;-67
2023/10/11 14:18:41;;;;;;;17.50;8.75;;;;;;;;;;4993126;28;20041;-67
2023/10/11 14:21:12;;;;;;;17.63;8.07;;;;;;;;;;4992845;28;20022;-67
2023/10/11 14:23:38;;;;;;;18.13;8.77;;;;;;;;;;4993098;28;20037;-67
2023/10/11 14:26:05;;;;;;;21.13;8.38;;;;;;;;;;4992610;28;20022;-67
2023/10/11 14:28:30;;;;;;;14.25;8.43;;;;;;;;;;4992897;28;20484;-66
2023/10/11 14:30:55;;;;;;;17.23;7.78;;;;;;;;;;4992771;28;20111;-66
2023/10/11 14:33:21;;;;;;;17.08;8.02;;;;;;;;;;4992794;28;20099;-66
2023/10/11 14:35:47;;;;;;;16.38;8.68;;;;;;;;;;4992423;28;20022;-68
2023/10/11 14:38:14;;;;;;;17.10;7.85;;;;;;;;;;4995887;28;20479;-66
2023/10/11 14:40:42;;;;;;;18.60;8.90;;;;;;;;;;5011900;28;20025;-66
2023/10/11 14:43:11;;;;;;;17.67;8.07;;;;;;;;;;5012352;28;20022;-68
2023/10/11 14:45:37;;;;;;;16.30;8.77;;;;;;;;;;5011971;28;20014;-69
2023/10/11 14:48:08;;;;;;;14.43;8.18;;;;;;;;;;5012289;28;20029;-67
2023/10/11 14:50:33;;;;;;;18.08;8.25;;;;;;;;;;5012190;28;20026;-67
2023/10/11 14:52:59;;;;;;;18.30;9.00;;;;;;;;;;5012150;28;20416;-67
2023/10/11 14:55:26;;;;;;;17.13;8.43;;;;;;;;;;5011869;28;20014;-66
2023/10/11 14:57:52;;;;;;;19.08;9.05;;;;;;;;;;5012111;28;20475;-68
2023/10/11 15:00:18;;;;;;;17.15;7.72;;;;;;;;;;5012179;28;20364;-66
2023/10/11 15:02:44;;;;;;;17.30;8.52;;;;;;;;;;5011965;28;20029;-67
2023/10/11 15:05:09;;;;;;;19.60;9.25;;;;;;;;;;5011778;28;20097;-68
2023/10/11 15:07:35;;;;;;;18.80;8.30;;;;;;;;;;5010923;28;20024;-67
2023/10/11 15:10:00;;;;;;;17.20;8.80;;;;;;;;;;5011730;28;20091;-66
2023/10/11 15:12:25;;;;;;;18.15;8.48;;;;;;;;;;5011828;28;20022;-68
2023/10/11 15:14:50;;;;;;;16.95;8.07;;;;;;;;;;5011844;28;20022;-61
2023/10/11 15:17:18;;;;;;;15.38;7.80;;;;;;;;;;5010960;28;20042;-66
2023/10/11 15:19:43;;;;;;;16.25;8.60;;;;;;;;;;5011475;28;20029;-67